createdAt,value
2018-06-25T00:01:23.557Z,99161.52
2018-06-25T00:03:51.677Z,99161.97
2018-06-25T00:06:19.863Z,99161.64
2018-06-25T00:08:47.944Z,99161.91
2018-06-25T00:11:16.028Z,99156.97
2018-06-25T00:13:44.146Z,99161.54
2018-06-25T00:16:12.326Z,99163.87
2018-06-25T00:18:40.638Z,99163.35
2018-06-25T00:21:08.741Z,99170.03
2018-06-25T00:23:36.825Z,99162.54
2018-06-25T00:26:05.004Z,99162.01
2018-06-25T00:28:34.020Z,99161.49
2018-06-25T00:31:02.279Z,99154.27
2018-06-25T00:33:30.376Z,99161.58
2018-06-25T00:35:58.474Z,99161.02
2018-06-25T00:38:26.545Z,99160.33
2018-06-25T00:40:54.857Z,99156.45
2018-06-25T00:43:22.960Z,99157.04
2018-06-25T00:45:51.024Z,99149.18
2018-06-25T00:48:19.158Z,99151.05
2018-06-25T00:50:47.219Z,99151.45
2018-06-25T00:53:15.513Z,99155.80
2018-06-25T00:55:43.740Z,99148.95
2018-06-25T00:58:12.121Z,99157.78
2018-06-25T01:00:40.248Z,99157.60
2018-06-25T01:03:08.860Z,99158.45
2018-06-25T01:05:37.105Z,99145.46
2018-06-25T01:08:05.663Z,99147.58
2018-06-25T01:10:33.772Z,99146.89
2018-06-25T01:13:01.848Z,99149.00
2018-06-25T01:15:30.121Z,99149.16
2018-06-25T01:17:58.226Z,99150.33
2018-06-25T01:20:26.379Z,99150.97
2018-06-25T01:22:54.686Z,99154.77
2018-06-25T01:25:22.781Z,99153.56
2018-06-25T01:27:50.848Z,99152.75
2018-06-25T01:30:18.924Z,99148.03
2018-06-25T01:32:47.000Z,99155.83
2018-06-25T01:35:15.123Z,99149.56
2018-06-25T01:37:43.265Z,99150.05
2018-06-25T01:40:11.504Z,99149.00
2018-06-25T01:42:39.583Z,99150.28
2018-06-25T01:45:07.725Z,99149.69
2018-06-25T01:47:36.226Z,99152.85
2018-06-25T01:50:04.355Z,99151.38
2018-06-25T01:52:32.489Z,99152.95
2018-06-25T01:55:00.616Z,99148.34
2018-06-25T01:57:28.745Z,99148.92
2018-06-25T01:59:56.871Z,99149.77
2018-06-25T02:02:24.953Z,99146.75
2018-06-25T02:04:53.023Z,99146.05
2018-06-25T02:07:21.242Z,99142.72
2018-06-25T02:09:49.312Z,99142.38
2018-06-25T02:12:17.737Z,99145.13
2018-06-25T02:14:45.812Z,99143.59
2018-06-25T02:17:13.965Z,99146.39
2018-06-25T02:19:42.164Z,99143.11
2018-06-25T02:22:10.263Z,99147.80
2018-06-25T02:24:38.351Z,99154.44
2018-06-25T02:27:07.341Z,99153.73
2018-06-25T02:29:35.429Z,99150.39
2018-06-25T02:32:03.524Z,99144.13
2018-06-25T02:34:31.617Z,99153.05
2018-06-25T02:36:59.698Z,99154.84
2018-06-25T02:39:27.797Z,99154.52
2018-06-25T02:41:55.940Z,99159.61
2018-06-25T02:44:24.049Z,99152.95
2018-06-25T02:46:52.116Z,99150.93
2018-06-25T02:49:20.228Z,99149.88
2018-06-25T02:51:48.313Z,99146.67
2018-06-25T02:54:16.421Z,99154.63
2018-06-25T02:56:44.493Z,99146.67
2018-06-25T02:59:12.687Z,99141.61
2018-06-25T03:01:40.854Z,99141.40
2018-06-25T03:04:08.927Z,99149.31
2018-06-25T03:06:37.076Z,99150.20
2018-06-25T03:09:07.631Z,99146.86
2018-06-25T03:11:35.741Z,99149.73
2018-06-25T03:14:03.864Z,99152.16
2018-06-25T03:16:32.001Z,99155.80
2018-06-25T03:19:00.084Z,99157.83
2018-06-25T03:21:28.237Z,99161.03
2018-06-25T03:23:56.373Z,99160.55
2018-06-25T03:26:24.459Z,99164.26
2018-06-25T03:28:52.572Z,99168.56
2018-06-25T03:31:20.669Z,99178.82
2018-06-25T03:33:48.769Z,99182.72
2018-06-25T03:36:16.852Z,99174.34
2018-06-25T03:38:44.924Z,99181.29
2018-06-25T03:41:12.995Z,99177.13
2018-06-25T03:43:41.393Z,99177.78
2018-06-25T03:46:10.073Z,99183.30
2018-06-25T03:48:38.313Z,99183.38
2018-06-25T03:51:06.415Z,99181.12
2018-06-25T03:53:34.519Z,99187.72
2018-06-25T03:56:02.608Z,99183.27
2018-06-25T03:58:30.749Z,99191.77
2018-06-25T04:00:58.882Z,99191.47
2018-06-25T04:03:27.218Z,99197.83
2018-06-25T04:05:55.301Z,99192.23
2018-06-25T04:08:23.380Z,99207.16
2018-06-25T04:10:51.773Z,99207.80
2018-06-25T04:13:19.845Z,99203.76
2018-06-25T04:15:47.940Z,99204.71
2018-06-25T04:18:16.064Z,99212.53
2018-06-25T04:20:44.353Z,99211.28
2018-06-25T04:23:12.418Z,99209.89
2018-06-25T04:25:41.265Z,99218.45
2018-06-25T04:28:09.351Z,99210.30
2018-06-25T04:30:37.431Z,99214.76
2018-06-25T04:33:05.570Z,99214.47
2018-06-25T04:35:33.655Z,99213.06
2018-06-25T04:38:01.747Z,99213.21
2018-06-25T04:40:29.853Z,99211.32
2018-06-25T04:42:57.936Z,99213.12
2018-06-25T04:45:26.024Z,99219.34
2018-06-25T04:47:54.091Z,99215.50
2018-06-25T04:50:22.197Z,99224.87
2018-06-25T04:52:50.388Z,99225.41
2018-06-25T04:55:18.464Z,99223.67
2018-06-25T04:57:46.555Z,99229.91
2018-06-25T05:00:14.643Z,99233.39
2018-06-25T05:02:42.748Z,99238.67
2018-06-25T05:05:10.830Z,99240.25
2018-06-25T05:07:38.919Z,99247.32
2018-06-25T05:10:07.001Z,99246.89
2018-06-25T05:12:35.073Z,99251.23
2018-06-25T05:15:03.136Z,99247.34
2018-06-25T05:17:31.239Z,99247.92
2018-06-25T05:19:59.316Z,99245.28
2018-06-25T05:22:27.404Z,99246.09
2018-06-25T05:24:55.501Z,99245.42
2018-06-25T05:27:23.603Z,99249.30
2018-06-25T05:29:51.681Z,99246.91
2018-06-25T05:32:19.752Z,99240.47
2018-06-25T05:34:47.820Z,99245.91
2018-06-25T05:37:15.912Z,99248.28
2018-06-25T05:39:44.049Z,99248.08
2018-06-25T05:42:17.460Z,99246.98
2018-06-25T05:44:45.532Z,99245.64
2018-06-25T05:47:14.199Z,99250.77
2018-06-25T05:49:43.119Z,99251.48
2018-06-25T05:52:11.210Z,99255.20
2018-06-25T05:54:39.509Z,99258.48
2018-06-25T05:57:07.610Z,99260.08
2018-06-25T05:59:35.688Z,99273.94
2018-06-25T06:02:03.772Z,99265.19
2018-06-25T06:04:31.845Z,99268.73
2018-06-25T06:06:59.962Z,99271.41
2018-06-25T06:09:28.044Z,99273.45
2018-06-25T06:11:56.336Z,99276.20
2018-06-25T06:14:24.425Z,99281.86
2018-06-25T06:16:52.780Z,99285.77
2018-06-25T06:19:20.877Z,99293.72
2018-06-25T06:21:49.296Z,99291.34
2018-06-25T06:24:17.389Z,99284.36
2018-06-25T06:26:45.732Z,99289.38
2018-06-25T06:29:13.824Z,99291.64
2018-06-25T06:31:41.900Z,99297.46
2018-06-25T06:34:09.993Z,99296.73
2018-06-25T06:36:38.063Z,99296.49
2018-06-25T06:39:09.823Z,99307.56
2018-06-25T06:41:37.908Z,99300.44
2018-06-25T06:44:06.029Z,99299.37
2018-06-25T06:46:34.106Z,99302.16
2018-06-25T06:49:02.538Z,99301.34
2018-06-25T06:51:30.948Z,99302.32
2018-06-25T06:53:58.999Z,99301.43
2018-06-25T06:56:27.140Z,99304.04
2018-06-25T06:58:55.240Z,99300.72
2018-06-25T07:01:23.617Z,99307.33
2018-06-25T07:03:51.729Z,99300.90
2018-06-25T07:06:20.056Z,99304.77
2018-06-25T07:08:48.172Z,99302.66
2018-06-25T07:11:16.251Z,99311.08
2018-06-25T07:13:44.331Z,99306.41
2018-06-25T07:16:12.464Z,99308.14
2018-06-25T07:18:40.592Z,99306.34
2018-06-25T07:21:08.668Z,99307.41
2018-06-25T07:23:36.774Z,99306.23
2018-06-25T07:26:05.165Z,99299.61
2018-06-25T07:28:33.251Z,99318.34
2018-06-25T07:31:02.795Z,99311.92
2018-06-25T07:33:31.161Z,99308.98
2018-06-25T07:35:59.260Z,99310.08
2018-06-25T07:38:27.331Z,99307.53
2018-06-25T07:40:55.441Z,99305.80
2018-06-25T07:43:23.516Z,99302.87
2018-06-25T07:45:51.602Z,99301.12
2018-06-25T07:48:19.681Z,99299.05
2018-06-25T07:50:47.761Z,99296.69
2018-06-25T07:53:15.911Z,99291.64
2018-06-25T07:55:43.994Z,99298.92
2018-06-25T07:58:12.096Z,99299.60
2018-06-25T08:00:40.185Z,99299.63
2018-06-25T08:03:08.247Z,99302.20
2018-06-25T08:05:36.336Z,99303.72
2018-06-25T08:08:04.424Z,99301.91
2018-06-25T08:10:32.519Z,99308.96
2018-06-25T08:13:00.941Z,99312.11
2018-06-25T08:15:29.048Z,99315.23
2018-06-25T08:17:57.132Z,99325.23
2018-06-25T08:20:25.306Z,99325.38
2018-06-25T08:22:53.509Z,99324.84
2018-06-25T08:25:21.612Z,99321.45
2018-06-25T08:27:49.695Z,99319.48
2018-06-25T08:30:17.800Z,99321.59
2018-06-25T08:32:45.897Z,99316.67
2018-06-25T08:35:14.029Z,99323.18
2018-06-25T08:37:42.157Z,99316.19
2018-06-25T08:40:10.286Z,99321.66
2018-06-25T08:42:38.345Z,99325.19
2018-06-25T08:45:06.442Z,99327.38
2018-06-25T08:47:34.568Z,99331.00
2018-06-25T08:50:02.659Z,99331.62
2018-06-25T08:52:30.860Z,99337.31
2018-06-25T08:54:58.964Z,99335.05
2018-06-25T08:57:27.076Z,99342.04
2018-06-25T08:59:55.175Z,99335.38
2018-06-25T09:02:23.252Z,99336.33
2018-06-25T09:04:51.682Z,99343.68
2018-06-25T09:07:19.763Z,99349.20
2018-06-25T09:09:47.886Z,99350.00
2018-06-25T09:12:15.982Z,99351.95
2018-06-25T09:14:44.072Z,99346.11
2018-06-25T09:17:12.416Z,99351.25
2018-06-25T09:19:40.530Z,99346.37
2018-06-25T09:22:08.669Z,99345.03
2018-06-25T09:24:36.700Z,99342.00
2018-06-25T09:27:05.027Z,99345.39
2018-06-25T09:29:33.104Z,99350.06
2018-06-25T09:32:01.681Z,99348.53
2018-06-25T09:34:35.167Z,99352.73
2018-06-25T09:37:03.269Z,99348.13
2018-06-25T09:39:31.356Z,99340.24
2018-06-25T09:41:59.488Z,99347.40
2018-06-25T09:44:27.560Z,99352.87
2018-06-25T09:46:55.672Z,99346.38
2018-06-25T09:49:23.775Z,99349.56
2018-06-25T09:51:51.850Z,99348.23
2018-06-25T09:54:19.951Z,99346.86
2018-06-25T09:56:48.057Z,99340.42
2018-06-25T09:59:16.144Z,99342.43
2018-06-25T10:01:44.429Z,99338.02
2018-06-25T10:04:12.512Z,99341.16
2018-06-25T10:06:40.621Z,99339.77
2018-06-25T10:09:10.444Z,99339.25
2018-06-25T10:11:38.708Z,99339.93
2018-06-25T10:14:06.981Z,99334.51
2018-06-25T10:16:35.162Z,99330.31
2018-06-25T10:19:03.636Z,99342.25
2018-06-25T10:21:31.711Z,99342.61
2018-06-25T10:23:59.804Z,99346.74
2018-06-25T10:26:27.876Z,99342.61
2018-06-25T10:28:56.820Z,99347.17
2018-06-25T10:31:24.902Z,99342.18
2018-06-25T10:33:52.988Z,99344.97
2018-06-25T10:36:21.082Z,99345.34
2018-06-25T10:38:49.164Z,99337.75
2018-06-25T10:41:17.232Z,99339.78
2018-06-25T10:43:45.317Z,99335.62
2018-06-25T10:46:13.397Z,99338.59
2018-06-25T10:48:41.498Z,99337.58
2018-06-25T10:51:09.625Z,99332.00
2018-06-25T10:53:37.712Z,99330.70
2018-06-25T10:56:05.796Z,99333.72
2018-06-25T10:58:33.880Z,99330.22
2018-06-25T11:01:02.016Z,99331.34
2018-06-25T11:03:30.122Z,99338.95
2018-06-25T11:05:58.789Z,99339.84
2018-06-25T11:08:27.040Z,99334.91
2018-06-25T11:10:55.552Z,99329.69
2018-06-25T11:13:23.646Z,99334.98
2018-06-25T11:15:51.739Z,99333.77
2018-06-25T11:18:19.840Z,99327.95
2018-06-25T11:20:47.984Z,99327.56
2018-06-25T11:23:16.072Z,99327.02
2018-06-25T11:25:44.224Z,99337.69
2018-06-25T11:28:12.320Z,99331.04
2018-06-25T11:30:40.438Z,99331.34
2018-06-25T11:33:08.540Z,99331.78
2018-06-25T11:35:36.623Z,99329.91
2018-06-25T11:38:04.820Z,99329.08
2018-06-25T11:40:32.984Z,99335.11
2018-06-25T11:43:01.077Z,99327.47
2018-06-25T11:45:29.797Z,99335.14
2018-06-25T11:47:57.972Z,99322.39
2018-06-25T11:50:26.112Z,99324.77
2018-06-25T11:52:54.185Z,99327.77
2018-06-25T11:55:22.284Z,99325.52
2018-06-25T11:57:50.356Z,99321.91
2018-06-25T12:00:18.494Z,99325.36
2018-06-25T12:02:47.005Z,99318.28
2018-06-25T12:05:15.048Z,99316.55
2018-06-25T12:07:43.130Z,99322.19
2018-06-25T12:10:11.253Z,99316.63
2018-06-25T12:12:39.416Z,99313.88
2018-06-25T12:15:07.669Z,99316.89
2018-06-25T12:17:36.585Z,99322.31
2018-06-25T12:20:04.631Z,99320.97
2018-06-25T12:22:32.738Z,99323.61
2018-06-25T12:25:00.814Z,99319.42
2018-06-25T12:27:29.016Z,99327.91
2018-06-25T12:29:57.102Z,99319.52
2018-06-25T12:32:25.177Z,99310.88
2018-06-25T12:34:53.284Z,99309.94
2018-06-25T12:37:21.369Z,99306.40
2018-06-25T12:39:49.474Z,99310.52
2018-06-25T12:42:17.541Z,99313.66
2018-06-25T12:44:45.616Z,99300.66
2018-06-25T12:47:13.689Z,99296.84
2018-06-25T12:49:41.802Z,99299.39
2018-06-25T12:52:09.901Z,99298.98
2018-06-25T12:54:38.000Z,99306.52
2018-06-25T12:57:06.138Z,99308.22
2018-06-25T12:59:34.199Z,99310.00
2018-06-25T13:02:02.258Z,99308.12
2018-06-25T13:04:30.351Z,99315.55
2018-06-25T13:06:58.811Z,99318.38
2018-06-25T13:09:26.898Z,99312.25
2018-06-25T13:11:55.037Z,99319.69
2018-06-25T22:02:36.299Z,99406.15
2018-06-25T22:05:04.389Z,99403.49
2018-06-25T22:07:32.465Z,99402.88
2018-06-25T22:10:00.652Z,99409.66
2018-06-25T22:12:28.724Z,99404.34
2018-06-25T22:14:56.967Z,99411.64
2018-06-25T22:17:25.210Z,99419.34
2018-06-25T22:19:53.591Z,99414.73
2018-06-25T22:22:21.784Z,99417.16
2018-06-25T22:24:49.852Z,99414.87
2018-06-25T22:27:17.944Z,99418.38
2018-06-25T22:29:46.115Z,99413.41
2018-06-25T22:32:14.224Z,99409.32
2018-06-25T22:34:42.352Z,99411.34
2018-06-25T22:37:10.435Z,99408.73
2018-06-25T22:39:38.504Z,99404.28
2018-06-25T22:42:06.700Z,99406.91
2018-06-25T22:44:34.780Z,99404.73
2018-06-25T22:47:02.933Z,99402.59
2018-06-25T22:49:31.282Z,99405.80
2018-06-25T22:51:59.554Z,99403.14
2018-06-25T22:54:27.647Z,99401.27
2018-06-25T22:56:55.747Z,99396.45
2018-06-25T22:59:23.874Z,99398.63
2018-06-25T23:01:52.051Z,99390.52
2018-06-25T23:04:20.128Z,99394.89
2018-06-25T23:06:48.224Z,99397.06
2018-06-25T23:09:16.372Z,99396.69
2018-06-25T23:11:44.756Z,99395.96
2018-06-25T23:14:13.000Z,99402.55
2018-06-25T23:16:41.127Z,99395.17
2018-06-25T23:19:09.200Z,99401.79
2018-06-25T23:21:37.268Z,99404.89
2018-06-25T23:24:05.351Z,99396.38
2018-06-25T23:26:33.509Z,99386.86
2018-06-25T23:29:01.774Z,99393.14
2018-06-25T23:31:29.904Z,99399.30
2018-06-25T23:33:57.988Z,99403.12
2018-06-25T23:36:26.140Z,99400.20
2018-06-25T23:38:54.216Z,99406.54
2018-06-25T23:41:23.049Z,99404.54
2018-06-25T23:43:51.122Z,99406.68
2018-06-25T23:46:19.297Z,99409.38
2018-06-25T23:48:47.436Z,99402.19
2018-06-25T23:51:15.515Z,99409.61
2018-06-25T23:53:43.665Z,99406.11
2018-06-25T23:56:11.904Z,99415.70
2018-06-25T23:58:39.996Z,99414.68
